Terminal Aerodrome Forecast
Issued by NWS Blacksburg, VA

Current Version | Previous Version | Text Only | Print | Product List | Glossary Off
Versions: 1 2 3 4 5 6 7 8 9 10 11 12 13 14 15 16 17 18 19 20 21 22 23 24 25 26 27 28

000
FTUS41 KRNK 020242 AAA
TAFBLF
TAF AMD
KBLF 020242Z 0203/0224 29007KT P6SM SCT015 SCT060
      TEMPO 0203/0207 BKN015
     FM020700 30006KT 4SM BR SCT007 BKN012
     FM021400 30007KT P6SM SCT045
      AMD NOT SKED=

USA.gov is the U.S. government's official web portal to all federal, state and local government web resources and services.